sensor_id;sensor_type;location;lat;lon;timestamp;temperature;humidity
21167;DHT22;10741;52.272;9.580;2023-03-14T00:01:52;12.00;99.90
21167;DHT22;10741;52.272;9.580;2023-03-14T00:04:18;12.00;99.90
21167;DHT22;10741;52.272;9.580;2023-03-14T00:06:44;12.10;99.90
21167;DHT22;10741;52.272;9.580;2023-03-14T00:09:13;12.00;99.90
21167;DHT22;10741;52.272;9.580;2023-03-14T00:11:38;12.00;99.90
21167;DHT22;10741;52.272;9.580;2023-03-14T00:14:04;12.00;99.90
21167;DHT22;10741;52.272;9.580;2023-03-14T00:16:30;11.90;99.90
21167;DHT22;10741;52.272;9.580;2023-03-14T00:18:57;11.90;99.90
21167;DHT22;10741;52.272;9.580;2023-03-14T00:21:23;11.90;99.90
21167;DHT22;10741;52.272;9.580;2023-03-14T00:23:52;11.90;99.90
21167;DHT22;10741;52.272;9.580;2023-03-14T00:26:20;11.90;99.90
21167;DHT22;10741;52.272;9.580;2023-03-14T00:28:47;11.90;99.90
21167;DHT22;10741;52.272;9.580;2023-03-14T00:31:16;12.00;99.90
21167;DHT22;10741;52.272;9.580;2023-03-14T00:33:42;12.00;99.90
21167;DHT22;10741;52.272;9.580;2023-03-14T00:36:17;11.80;99.90
21167;DHT22;10741;52.272;9.580;2023-03-14T00:38:44;11.80;99.90
21167;DHT22;10741;52.272;9.580;2023-03-14T00:41:14;11.80;99.90
21167;DHT22;10741;52.272;9.580;2023-03-14T00:43:40;11.80;99.90
21167;DHT22;10741;52.272;9.580;2023-03-14T00:46:06;11.80;99.90
21167;DHT22;10741;52.272;9.580;2023-03-14T00:48:32;11.90;99.90
21167;DHT22;10741;52.272;9.580;2023-03-14T00:50:58;11.90;99.90
21167;DHT22;10741;52.272;9.580;2023-03-14T00:53:24;11.90;99.90
21167;DHT22;10741;52.272;9.580;2023-03-14T00:55:50;11.80;99.90
21167;DHT22;10741;52.272;9.580;2023-03-14T00:58:17;11.80;99.90
21167;DHT22;10741;52.272;9.580;2023-03-14T01:00:44;11.80;99.90
21167;DHT22;10741;52.272;9.580;2023-03-14T01:03:10;11.70;99.90
21167;DHT22;10741;52.272;9.580;2023-03-14T01:05:37;11.60;99.90
21167;DHT22;10741;52.272;9.580;2023-03-14T01:08:03;11.60;99.90
21167;DHT22;10741;52.272;9.580;2023-03-14T01:10:29;11.60;99.90
21167;DHT22;10741;52.272;9.580;2023-03-14T01:12:55;11.50;99.90
21167;DHT22;10741;52.272;9.580;2023-03-14T01:15:21;11.60;99.90
21167;DHT22;10741;52.272;9.580;2023-03-14T01:17:47;11.60;99.90
21167;DHT22;10741;52.272;9.580;2023-03-14T01:20:14;11.60;99.90
21167;DHT22;10741;52.272;9.580;2023-03-14T01:22:41;11.60;99.90
21167;DHT22;10741;52.272;9.580;2023-03-14T01:25:09;11.60;99.90
21167;DHT22;10741;52.272;9.580;2023-03-14T01:27:35;11.60;99.90
21167;DHT22;10741;52.272;9.580;2023-03-14T01:30:01;11.70;99.90
21167;DHT22;10741;52.272;9.580;2023-03-14T01:32:27;11.70;99.90
21167;DHT22;10741;52.272;9.580;2023-03-14T01:34:53;11.70;99.90
21167;DHT22;10741;52.272;9.580;2023-03-14T01:37:19;11.60;99.90
21167;DHT22;10741;52.272;9.580;2023-03-14T01:39:46;11.50;99.90
21167;DHT22;10741;52.272;9.580;2023-03-14T01:42:12;11.40;99.90
21167;DHT22;10741;52.272;9.580;2023-03-14T01:47:16;11.50;99.90
21167;DHT22;10741;52.272;9.580;2023-03-14T01:49:42;11.70;99.90
21167;DHT22;10741;52.272;9.580;2023-03-14T01:52:25;11.80;99.90
21167;DHT22;10741;52.272;9.580;2023-03-14T01:55:14;11.70;99.90
21167;DHT22;10741;52.272;9.580;2023-03-14T01:57:46;11.70;99.90
21167;DHT22;10741;52.272;9.580;2023-03-14T02:00:18;11.80;99.90
21167;DHT22;10741;52.272;9.580;2023-03-14T02:02:47;11.80;99.90
21167;DHT22;10741;52.272;9.580;2023-03-14T02:05:17;11.80;99.90
21167;DHT22;10741;52.272;9.580;2023-03-14T02:07:52;11.80;99.90
21167;DHT22;10741;52.272;9.580;2023-03-14T02:10:22;11.80;99.90
21167;DHT22;10741;52.272;9.580;2023-03-14T02:12:49;11.80;99.90
21167;DHT22;10741;52.272;9.580;2023-03-14T02:15:16;11.70;99.90
21167;DHT22;10741;52.272;9.580;2023-03-14T02:17:42;11.70;99.90
21167;DHT22;10741;52.272;9.580;2023-03-14T02:22:40;11.70;99.90
21167;DHT22;10741;52.272;9.580;2023-03-14T02:27:41;11.50;99.90
21167;DHT22;10741;52.272;9.580;2023-03-14T02:30:16;11.50;99.90
21167;DHT22;10741;52.272;9.580;2023-03-14T02:32:48;11.40;99.90
21167;DHT22;10741;52.272;9.580;2023-03-14T02:35:19;11.50;99.90
21167;DHT22;10741;52.272;9.580;2023-03-14T02:37:51;11.50;99.90
21167;DHT22;10741;52.272;9.580;2023-03-14T02:40:18;11.50;99.90
21167;DHT22;10741;52.272;9.580;2023-03-14T02:42:44;11.40;99.90
21167;DHT22;10741;52.272;9.580;2023-03-14T02:47:44;11.40;99.90
21167;DHT22;10741;52.272;9.580;2023-03-14T02:50:16;11.30;99.90
21167;DHT22;10741;52.272;9.580;2023-03-14T02:52:43;11.30;99.90
21167;DHT22;10741;52.272;9.580;2023-03-14T02:55:09;11.30;99.90
21167;DHT22;10741;52.272;9.580;2023-03-14T02:57:34;11.30;99.90
21167;DHT22;10741;52.272;9.580;2023-03-14T03:00:02;11.30;99.90
21167;DHT22;10741;52.272;9.580;2023-03-14T03:02:31;11.40;99.90
21167;DHT22;10741;52.272;9.580;2023-03-14T03:04:56;11.50;99.90
21167;DHT22;10741;52.272;9.580;2023-03-14T03:07:22;11.40;99.90
21167;DHT22;10741;52.272;9.580;2023-03-14T03:09:48;11.30;99.90
21167;DHT22;10741;52.272;9.580;2023-03-14T03:12:14;11.40;99.90
21167;DHT22;10741;52.272;9.580;2023-03-14T03:14:39;11.40;99.90
21167;DHT22;10741;52.272;9.580;2023-03-14T03:17:06;11.40;99.90
21167;DHT22;10741;52.272;9.580;2023-03-14T03:19:33;11.50;99.90
21167;DHT22;10741;52.272;9.580;2023-03-14T03:21:58;11.40;99.90
21167;DHT22;10741;52.272;9.580;2023-03-14T03:24:25;11.40;99.90
21167;DHT22;10741;52.272;9.580;2023-03-14T03:26:51;11.40;99.90
21167;DHT22;10741;52.272;9.580;2023-03-14T03:29:17;11.40;99.90
21167;DHT22;10741;52.272;9.580;2023-03-14T03:31:42;11.40;99.90
21167;DHT22;10741;52.272;9.580;2023-03-14T03:34:11;11.40;99.90
21167;DHT22;10741;52.272;9.580;2023-03-14T03:36:37;11.20;99.90
21167;DHT22;10741;52.272;9.580;2023-03-14T03:39:03;10.90;99.90
21167;DHT22;10741;52.272;9.580;2023-03-14T03:41:30;10.60;99.90
21167;DHT22;10741;52.272;9.580;2023-03-14T03:43:56;10.20;99.90
21167;DHT22;10741;52.272;9.580;2023-03-14T03:46:22;10.00;99.90
21167;DHT22;10741;52.272;9.580;2023-03-14T03:48:48;9.70;99.90
21167;DHT22;10741;52.272;9.580;2023-03-14T03:51:15;9.50;99.90
21167;DHT22;10741;52.272;9.580;2023-03-14T03:53:42;9.30;99.90
21167;DHT22;10741;52.272;9.580;2023-03-14T03:56:08;9.20;99.90
21167;DHT22;10741;52.272;9.580;2023-03-14T03:58:34;9.00;99.90
21167;DHT22;10741;52.272;9.580;2023-03-14T04:01:00;9.00;99.90
21167;DHT22;10741;52.272;9.580;2023-03-14T04:03:26;8.90;99.90
21167;DHT22;10741;52.272;9.580;2023-03-14T04:06:04;8.80;99.90
21167;DHT22;10741;52.272;9.580;2023-03-14T04:08:31;8.80;99.90
21167;DHT22;10741;52.272;9.580;2023-03-14T04:10:57;8.80;99.90
21167;DHT22;10741;52.272;9.580;2023-03-14T04:13:24;8.80;99.90
21167;DHT22;10741;52.272;9.580;2023-03-14T04:15:50;8.70;99.90
21167;DHT22;10741;52.272;9.580;2023-03-14T04:18:16;8.70;99.90
21167;DHT22;10741;52.272;9.580;2023-03-14T04:20:42;8.70;99.90
21167;DHT22;10741;52.272;9.580;2023-03-14T04:23:07;8.60;99.90
21167;DHT22;10741;52.272;9.580;2023-03-14T04:25:33;8.60;99.90
21167;DHT22;10741;52.272;9.580;2023-03-14T04:27:59;8.60;99.90
21167;DHT22;10741;52.272;9.580;2023-03-14T04:30:24;8.50;99.90
21167;DHT22;10741;52.272;9.580;2023-03-14T04:32:50;8.50;99.90
21167;DHT22;10741;52.272;9.580;2023-03-14T04:35:16;8.50;99.90
21167;DHT22;10741;52.272;9.580;2023-03-14T04:37:42;8.50;99.90
21167;DHT22;10741;52.272;9.580;2023-03-14T04:40:09;8.50;99.90
21167;DHT22;10741;52.272;9.580;2023-03-14T04:42:35;8.50;99.90
21167;DHT22;10741;52.272;9.580;2023-03-14T04:45:02;8.50;99.90
21167;DHT22;10741;52.272;9.580;2023-03-14T04:47:28;8.40;99.90
21167;DHT22;10741;52.272;9.580;2023-03-14T04:49:54;8.40;99.90
21167;DHT22;10741;52.272;9.580;2023-03-14T04:52:19;8.40;99.90
21167;DHT22;10741;52.272;9.580;2023-03-14T04:54:45;8.40;99.90
21167;DHT22;10741;52.272;9.580;2023-03-14T04:57:11;8.40;99.90
21167;DHT22;10741;52.272;9.580;2023-03-14T04:59:37;8.40;99.90
21167;DHT22;10741;52.272;9.580;2023-03-14T05:02:02;8.40;99.90
21167;DHT22;10741;52.272;9.580;2023-03-14T05:04:28;8.50;99.90
21167;DHT22;10741;52.272;9.580;2023-03-14T05:06:54;8.50;99.90
21167;DHT22;10741;52.272;9.580;2023-03-14T05:09:20;8.40;99.90
21167;DHT22;10741;52.272;9.580;2023-03-14T05:11:46;8.40;99.90
21167;DHT22;10741;52.272;9.580;2023-03-14T05:14:11;8.40;99.90
21167;DHT22;10741;52.272;9.580;2023-03-14T05:16:37;8.40;99.90
21167;DHT22;10741;52.272;9.580;2023-03-14T05:19:03;8.30;99.90
21167;DHT22;10741;52.272;9.580;2023-03-14T05:21:29;8.30;99.90
21167;DHT22;10741;52.272;9.580;2023-03-14T05:23:54;8.30;99.90
21167;DHT22;10741;52.272;9.580;2023-03-14T05:26:20;8.30;99.90
21167;DHT22;10741;52.272;9.580;2023-03-14T05:28:46;8.30;99.90
21167;DHT22;10741;52.272;9.580;2023-03-14T05:31:12;8.30;99.90
21167;DHT22;10741;52.272;9.580;2023-03-14T05:33:37;8.40;99.90
21167;DHT22;10741;52.272;9.580;2023-03-14T05:36:03;8.40;99.90
21167;DHT22;10741;52.272;9.580;2023-03-14T05:38:29;8.40;99.90
21167;DHT22;10741;52.272;9.580;2023-03-14T05:40:55;8.40;99.90
21167;DHT22;10741;52.272;9.580;2023-03-14T05:43:20;8.50;99.90
21167;DHT22;10741;52.272;9.580;2023-03-14T05:45:46;8.50;99.90
21167;DHT22;10741;52.272;9.580;2023-03-14T05:48:12;8.40;99.90
21167;DHT22;10741;52.272;9.580;2023-03-14T05:50:38;8.50;99.90
21167;DHT22;10741;52.272;9.580;2023-03-14T05:53:03;8.50;99.90
21167;DHT22;10741;52.272;9.580;2023-03-14T05:55:29;8.40;99.90
21167;DHT22;10741;52.272;9.580;2023-03-14T05:57:55;8.40;99.90
21167;DHT22;10741;52.272;9.580;2023-03-14T06:00:21;8.50;99.90
21167;DHT22;10741;52.272;9.580;2023-03-14T06:02:47;8.50;99.90
21167;DHT22;10741;52.272;9.580;2023-03-14T06:05:13;8.50;99.90
21167;DHT22;10741;52.272;9.580;2023-03-14T06:07:39;8.50;99.90
21167;DHT22;10741;52.272;9.580;2023-03-14T06:10:05;8.50;99.90
21167;DHT22;10741;52.272;9.580;2023-03-14T06:12:31;8.50;99.90
21167;DHT22;10741;52.272;9.580;2023-03-14T06:14:57;8.60;99.90
21167;DHT22;10741;52.272;9.580;2023-03-14T06:17:22;8.60;99.90
21167;DHT22;10741;52.272;9.580;2023-03-14T06:19:48;8.70;99.90
21167;DHT22;10741;52.272;9.580;2023-03-14T06:22:14;8.70;99.90
21167;DHT22;10741;52.272;9.580;2023-03-14T06:24:39;8.80;99.90
21167;DHT22;10741;52.272;9.580;2023-03-14T06:27:05;8.80;99.90
21167;DHT22;10741;52.272;9.580;2023-03-14T06:29:31;8.90;99.90
21167;DHT22;10741;52.272;9.580;2023-03-14T06:31:57;8.90;99.90
21167;DHT22;10741;52.272;9.580;2023-03-14T06:34:22;8.90;99.90
21167;DHT22;10741;52.272;9.580;2023-03-14T06:36:48;8.90;99.90
21167;DHT22;10741;52.272;9.580;2023-03-14T06:39:14;8.90;99.90
21167;DHT22;10741;52.272;9.580;2023-03-14T06:41:40;8.90;99.90
21167;DHT22;10741;52.272;9.580;2023-03-14T06:44:05;8.90;99.90
21167;DHT22;10741;52.272;9.580;2023-03-14T06:46:31;8.90;99.90
21167;DHT22;10741;52.272;9.580;2023-03-14T06:48:57;8.90;99.90
21167;DHT22;10741;52.272;9.580;2023-03-14T06:51:23;8.90;99.90
21167;DHT22;10741;52.272;9.580;2023-03-14T06:53:48;8.90;99.90
21167;DHT22;10741;52.272;9.580;2023-03-14T06:56:14;8.90;99.90
21167;DHT22;10741;52.272;9.580;2023-03-14T06:58:40;9.00;99.90
21167;DHT22;10741;52.272;9.580;2023-03-14T07:01:10;9.00;99.90
21167;DHT22;10741;52.272;9.580;2023-03-14T07:03:40;9.00;99.90
21167;DHT22;10741;52.272;9.580;2023-03-14T07:06:06;9.00;99.90
21167;DHT22;10741;52.272;9.580;2023-03-14T07:08:32;8.90;99.90
21167;DHT22;10741;52.272;9.580;2023-03-14T07:10:57;8.80;99.90
21167;DHT22;10741;52.272;9.580;2023-03-14T07:13:23;8.80;99.90
21167;DHT22;10741;52.272;9.580;2023-03-14T07:15:49;8.90;99.90
21167;DHT22;10741;52.272;9.580;2023-03-14T07:18:14;8.90;99.90
21167;DHT22;10741;52.272;9.580;2023-03-14T07:20:40;9.00;99.90
21167;DHT22;10741;52.272;9.580;2023-03-14T07:23:06;9.00;99.90
21167;DHT22;10741;52.272;9.580;2023-03-14T07:25:32;9.10;99.90
21167;DHT22;10741;52.272;9.580;2023-03-14T07:27:57;9.20;99.90
21167;DHT22;10741;52.272;9.580;2023-03-14T07:30:23;9.20;99.90
21167;DHT22;10741;52.272;9.580;2023-03-14T07:32:49;9.30;99.90
21167;DHT22;10741;52.272;9.580;2023-03-14T07:35:15;9.30;99.90
21167;DHT22;10741;52.272;9.580;2023-03-14T07:37:40;9.30;99.90
21167;DHT22;10741;52.272;9.580;2023-03-14T07:40:06;9.30;99.90
21167;DHT22;10741;52.272;9.580;2023-03-14T07:42:32;9.30;99.90
21167;DHT22;10741;52.272;9.580;2023-03-14T07:44:58;9.20;99.90
21167;DHT22;10741;52.272;9.580;2023-03-14T07:47:24;9.20;99.90
21167;DHT22;10741;52.272;9.580;2023-03-14T07:49:50;9.20;99.90
21167;DHT22;10741;52.272;9.580;2023-03-14T07:52:15;9.20;99.90
21167;DHT22;10741;52.272;9.580;2023-03-14T07:54:41;9.10;99.90
21167;DHT22;10741;52.272;9.580;2023-03-14T07:57:07;9.10;99.90
21167;DHT22;10741;52.272;9.580;2023-03-14T07:59:33;9.20;99.90
21167;DHT22;10741;52.272;9.580;2023-03-14T08:01:58;9.20;99.90
21167;DHT22;10741;52.272;9.580;2023-03-14T08:04:24;9.20;99.90
21167;DHT22;10741;52.272;9.580;2023-03-14T08:06:50;9.20;99.90
21167;DHT22;10741;52.272;9.580;2023-03-14T08:09:15;9.10;99.90
21167;DHT22;10741;52.272;9.580;2023-03-14T08:11:41;9.20;99.90
21167;DHT22;10741;52.272;9.580;2023-03-14T08:14:07;9.30;99.90
21167;DHT22;10741;52.272;9.580;2023-03-14T08:16:33;9.30;99.90
21167;DHT22;10741;52.272;9.580;2023-03-14T08:18:58;9.30;99.90
21167;DHT22;10741;52.272;9.580;2023-03-14T08:21:24;9.30;99.90
21167;DHT22;10741;52.272;9.580;2023-03-14T08:23:50;9.50;99.90
21167;DHT22;10741;52.272;9.580;2023-03-14T08:26:15;9.50;99.90
21167;DHT22;10741;52.272;9.580;2023-03-14T08:28:41;9.50;99.90
21167;DHT22;10741;52.272;9.580;2023-03-14T08:31:07;9.80;99.90
21167;DHT22;10741;52.272;9.580;2023-03-14T08:33:33;10.20;99.90
21167;DHT22;10741;52.272;9.580;2023-03-14T08:36:00;10.50;99.90
21167;DHT22;10741;52.272;9.580;2023-03-14T08:38:26;10.50;99.90
21167;DHT22;10741;52.272;9.580;2023-03-14T08:40:56;10.40;99.90
21167;DHT22;10741;52.272;9.580;2023-03-14T08:43:23;10.30;99.90
21167;DHT22;10741;52.272;9.580;2023-03-14T08:45:48;10.30;99.90
21167;DHT22;10741;52.272;9.580;2023-03-14T08:48:14;10.30;99.90
21167;DHT22;10741;52.272;9.580;2023-03-14T08:50:40;10.20;99.90
21167;DHT22;10741;52.272;9.580;2023-03-14T08:53:05;10.20;99.90
21167;DHT22;10741;52.272;9.580;2023-03-14T08:55:31;10.30;99.90
21167;DHT22;10741;52.272;9.580;2023-03-14T08:57:57;10.30;99.90
21167;DHT22;10741;52.272;9.580;2023-03-14T09:00:23;10.30;99.90
21167;DHT22;10741;52.272;9.580;2023-03-14T09:02:49;10.40;99.90
21167;DHT22;10741;52.272;9.580;2023-03-14T09:05:15;10.30;99.90
21167;DHT22;10741;52.272;9.580;2023-03-14T09:07:41;10.30;99.90
21167;DHT22;10741;52.272;9.580;2023-03-14T09:10:08;10.40;99.90
21167;DHT22;10741;52.272;9.580;2023-03-14T09:12:34;10.40;99.90
21167;DHT22;10741;52.272;9.580;2023-03-14T09:15:00;10.50;99.90
21167;DHT22;10741;52.272;9.580;2023-03-14T09:17:25;10.50;99.90
21167;DHT22;10741;52.272;9.580;2023-03-14T09:19:51;10.60;99.90
21167;DHT22;10741;52.272;9.580;2023-03-14T09:22:17;10.70;99.90
21167;DHT22;10741;52.272;9.580;2023-03-14T09:24:43;10.80;99.90
21167;DHT22;10741;52.272;9.580;2023-03-14T09:27:09;10.80;99.90
21167;DHT22;10741;52.272;9.580;2023-03-14T09:29:35;10.90;99.90
21167;DHT22;10741;52.272;9.580;2023-03-14T09:32:00;10.80;99.90
21167;DHT22;10741;52.272;9.580;2023-03-14T09:34:27;10.90;99.90
21167;DHT22;10741;52.272;9.580;2023-03-14T09:36:52;11.00;99.90
21167;DHT22;10741;52.272;9.580;2023-03-14T09:39:18;11.00;99.90
21167;DHT22;10741;52.272;9.580;2023-03-14T09:41:47;11.00;99.90
21167;DHT22;10741;52.272;9.580;2023-03-14T09:44:17;11.30;99.90
21167;DHT22;10741;52.272;9.580;2023-03-14T09:46:48;11.50;99.90
21167;DHT22;10741;52.272;9.580;2023-03-14T09:49:24;11.60;99.90
21167;DHT22;10741;52.272;9.580;2023-03-14T09:51:54;11.60;99.90
21167;DHT22;10741;52.272;9.580;2023-03-14T09:54:36;11.70;99.90
21167;DHT22;10741;52.272;9.580;2023-03-14T09:57:05;11.70;99.90
21167;DHT22;10741;52.272;9.580;2023-03-14T09:59:32;11.70;99.90
21167;DHT22;10741;52.272;9.580;2023-03-14T10:02:14;11.90;99.90
21167;DHT22;10741;52.272;9.580;2023-03-14T10:04:40;12.00;99.90
21167;DHT22;10741;52.272;9.580;2023-03-14T10:07:24;12.00;99.90
21167;DHT22;10741;52.272;9.580;2023-03-14T10:09:51;12.10;99.90
21167;DHT22;10741;52.272;9.580;2023-03-14T10:12:18;12.00;99.90
21167;DHT22;10741;52.272;9.580;2023-03-14T10:14:49;11.90;99.90
21167;DHT22;10741;52.272;9.580;2023-03-14T10:17:16;11.90;99.90
21167;DHT22;10741;52.272;9.580;2023-03-14T10:20:00;12.00;99.90
21167;DHT22;10741;52.272;9.580;2023-03-14T10:22:30;11.90;99.90
21167;DHT22;10741;52.272;9.580;2023-03-14T10:25:04;11.80;99.90
21167;DHT22;10741;52.272;9.580;2023-03-14T10:27:33;11.80;99.90
21167;DHT22;10741;52.272;9.580;2023-03-14T10:30:01;11.80;99.90
21167;DHT22;10741;52.272;9.580;2023-03-14T10:32:38;11.70;99.90
21167;DHT22;10741;52.272;9.580;2023-03-14T10:35:18;11.80;99.90
21167;DHT22;10741;52.272;9.580;2023-03-14T10:37:57;12.00;99.90
21167;DHT22;10741;52.272;9.580;2023-03-14T10:40:32;12.00;99.90
21167;DHT22;10741;52.272;9.580;2023-03-14T10:43:00;12.10;99.90
21167;DHT22;10741;52.272;9.580;2023-03-14T10:45:43;12.10;99.90
21167;DHT22;10741;52.272;9.580;2023-03-14T10:51:02;12.10;99.90
21167;DHT22;10741;52.272;9.580;2023-03-14T10:53:43;12.20;99.90
21167;DHT22;10741;52.272;9.580;2023-03-14T10:56:14;12.20;99.90
21167;DHT22;10741;52.272;9.580;2023-03-14T10:58:43;12.30;99.90
21167;DHT22;10741;52.272;9.580;2023-03-14T11:09:43;12.10;99.90
21167;DHT22;10741;52.272;9.580;2023-03-14T11:22:51;12.00;99.90
21167;DHT22;10741;52.272;9.580;2023-03-14T11:25:38;11.30;99.90
21167;DHT22;10741;52.272;9.580;2023-03-14T11:28:49;9.60;99.90
21167;DHT22;10741;52.272;9.580;2023-03-14T11:31:29;8.80;99.90
21167;DHT22;10741;52.272;9.580;2023-03-14T11:34:26;8.20;99.90
21167;DHT22;10741;52.272;9.580;2023-03-14T11:39:24;7.70;99.90
21167;DHT22;10741;52.272;9.580;2023-03-14T11:41:52;7.60;99.90
21167;DHT22;10741;52.272;9.580;2023-03-14T11:44:38;7.50;99.90
21167;DHT22;10741;52.272;9.580;2023-03-14T11:47:31;7.20;99.90
21167;DHT22;10741;52.272;9.580;2023-03-14T11:52:34;6.90;99.90
21167;DHT22;10741;52.272;9.580;2023-03-14T11:57:26;6.80;99.90
21167;DHT22;10741;52.272;9.580;2023-03-14T12:10:49;5.80;99.90
21167;DHT22;10741;52.272;9.580;2023-03-14T12:13:17;5.70;99.90
21167;DHT22;10741;52.272;9.580;2023-03-14T12:16:00;5.60;99.90
21167;DHT22;10741;52.272;9.580;2023-03-14T12:18:33;5.50;99.90
21167;DHT22;10741;52.272;9.580;2023-03-14T12:21:11;5.40;99.90
21167;DHT22;10741;52.272;9.580;2023-03-14T12:23:54;5.20;99.90
21167;DHT22;10741;52.272;9.580;2023-03-14T12:26:50;5.10;99.90
21167;DHT22;10741;52.272;9.580;2023-03-14T12:29:17;5.10;99.90
21167;DHT22;10741;52.272;9.580;2023-03-14T12:31:46;4.90;99.90
21167;DHT22;10741;52.272;9.580;2023-03-14T12:39:45;4.90;99.90
21167;DHT22;10741;52.272;9.580;2023-03-14T12:45:32;4.70;99.90
21167;DHT22;10741;52.272;9.580;2023-03-14T12:50:56;4.70;99.90
21167;DHT22;10741;52.272;9.580;2023-03-14T12:59:45;4.90;99.90
21167;DHT22;10741;52.272;9.580;2023-03-14T13:02:37;5.00;99.90
21167;DHT22;10741;52.272;9.580;2023-03-14T13:05:17;5.20;99.90
21167;DHT22;10741;52.272;9.580;2023-03-14T13:12:56;5.40;99.90
21167;DHT22;10741;52.272;9.580;2023-03-14T13:15:38;5.40;99.90
21167;DHT22;10741;52.272;9.580;2023-03-14T13:18:18;5.50;99.90
21167;DHT22;10741;52.272;9.580;2023-03-14T13:20:58;5.50;99.90
21167;DHT22;10741;52.272;9.580;2023-03-14T13:23:27;5.60;99.90
21167;DHT22;10741;52.272;9.580;2023-03-14T13:25:54;5.70;99.90
21167;DHT22;10741;52.272;9.580;2023-03-14T13:28:20;5.70;99.90
21167;DHT22;10741;52.272;9.580;2023-03-14T13:30:48;5.70;99.90
21167;DHT22;10741;52.272;9.580;2023-03-14T13:33:18;5.80;99.90
21167;DHT22;10741;52.272;9.580;2023-03-14T13:35:47;5.80;99.90
21167;DHT22;10741;52.272;9.580;2023-03-14T13:38:19;5.70;99.90
21167;DHT22;10741;52.272;9.580;2023-03-14T13:40:46;5.70;99.90
21167;DHT22;10741;52.272;9.580;2023-03-14T13:43:23;5.80;99.90
21167;DHT22;10741;52.272;9.580;2023-03-14T13:48:46;6.10;99.90
21167;DHT22;10741;52.272;9.580;2023-03-14T13:51:15;6.20;99.90
21167;DHT22;10741;52.272;9.580;2023-03-14T13:53:53;6.30;99.90
21167;DHT22;10741;52.272;9.580;2023-03-14T13:56:20;6.30;99.90
21167;DHT22;10741;52.272;9.580;2023-03-14T13:58:46;6.20;99.90
21167;DHT22;10741;52.272;9.580;2023-03-14T14:03:40;6.10;99.90
21167;DHT22;10741;52.272;9.580;2023-03-14T14:06:26;6.10;99.90
21167;DHT22;10741;52.272;9.580;2023-03-14T14:08:54;6.00;99.90
21167;DHT22;10741;52.272;9.580;2023-03-14T14:14:02;6.00;99.90
21167;DHT22;10741;52.272;9.580;2023-03-14T14:16:28;6.00;99.90
21167;DHT22;10741;52.272;9.580;2023-03-14T14:18:56;5.90;99.90
21167;DHT22;10741;52.272;9.580;2023-03-14T14:21:22;5.90;99.90
21167;DHT22;10741;52.272;9.580;2023-03-14T14:23:49;5.80;99.90
21167;DHT22;10741;52.272;9.580;2023-03-14T14:26:18;5.80;99.90
21167;DHT22;10741;52.272;9.580;2023-03-14T14:28:44;5.80;99.90
21167;DHT22;10741;52.272;9.580;2023-03-14T14:33:57;5.70;99.90
21167;DHT22;10741;52.272;9.580;2023-03-14T14:36:36;5.70;99.90
21167;DHT22;10741;52.272;9.580;2023-03-14T14:39:16;5.70;99.90
21167;DHT22;10741;52.272;9.580;2023-03-14T14:41:43;5.80;99.90
21167;DHT22;10741;52.272;9.580;2023-03-14T14:44:13;5.80;99.90
21167;DHT22;10741;52.272;9.580;2023-03-14T14:46:42;5.90;99.90
21167;DHT22;10741;52.272;9.580;2023-03-14T14:49:15;5.90;99.90
21167;DHT22;10741;52.272;9.580;2023-03-14T14:51:50;5.90;99.90
21167;DHT22;10741;52.272;9.580;2023-03-14T14:54:39;5.90;99.90
21167;DHT22;10741;52.272;9.580;2023-03-14T14:57:21;5.80;99.90
21167;DHT22;10741;52.272;9.580;2023-03-14T14:59:49;5.80;99.90
21167;DHT22;10741;52.272;9.580;2023-03-14T15:02:38;5.70;99.90
21167;DHT22;10741;52.272;9.580;2023-03-14T15:05:21;5.80;99.90
21167;DHT22;10741;52.272;9.580;2023-03-14T15:07:47;5.80;99.90
21167;DHT22;10741;52.272;9.580;2023-03-14T15:10:15;5.80;99.90
21167;DHT22;10741;52.272;9.580;2023-03-14T15:12:41;5.90;99.90
21167;DHT22;10741;52.272;9.580;2023-03-14T15:15:08;5.90;99.90
21167;DHT22;10741;52.272;9.580;2023-03-14T15:17:35;5.90;99.90
21167;DHT22;10741;52.272;9.580;2023-03-14T15:20:05;5.90;99.90
21167;DHT22;10741;52.272;9.580;2023-03-14T15:22:32;5.90;99.90
21167;DHT22;10741;52.272;9.580;2023-03-14T15:24:57;5.90;99.90
21167;DHT22;10741;52.272;9.580;2023-03-14T15:27:23;5.90;99.90
21167;DHT22;10741;52.272;9.580;2023-03-14T15:29:49;5.90;99.90
21167;DHT22;10741;52.272;9.580;2023-03-14T15:32:16;6.00;99.90
21167;DHT22;10741;52.272;9.580;2023-03-14T15:34:43;6.10;99.90
21167;DHT22;10741;52.272;9.580;2023-03-14T15:37:14;6.10;99.90
21167;DHT22;10741;52.272;9.580;2023-03-14T15:39:44;6.10;99.90
21167;DHT22;10741;52.272;9.580;2023-03-14T15:42:10;6.10;99.90
21167;DHT22;10741;52.272;9.580;2023-03-14T15:44:36;6.10;99.90
21167;DHT22;10741;52.272;9.580;2023-03-14T15:47:02;6.00;99.90
21167;DHT22;10741;52.272;9.580;2023-03-14T15:49:30;6.00;99.90
21167;DHT22;10741;52.272;9.580;2023-03-14T15:51:55;6.00;99.90
21167;DHT22;10741;52.272;9.580;2023-03-14T15:54:21;5.90;99.90
21167;DHT22;10741;52.272;9.580;2023-03-14T15:56:48;5.90;99.90
21167;DHT22;10741;52.272;9.580;2023-03-14T15:59:13;5.90;99.90
21167;DHT22;10741;52.272;9.580;2023-03-14T16:01:39;5.90;99.90
21167;DHT22;10741;52.272;9.580;2023-03-14T16:04:05;5.90;99.90
21167;DHT22;10741;52.272;9.580;2023-03-14T16:06:30;5.90;99.90
21167;DHT22;10741;52.272;9.580;2023-03-14T16:08:56;6.00;99.90
21167;DHT22;10741;52.272;9.580;2023-03-14T16:11:22;6.00;99.90
21167;DHT22;10741;52.272;9.580;2023-03-14T16:13:48;5.90;99.90
21167;DHT22;10741;52.272;9.580;2023-03-14T16:16:14;5.90;99.90
21167;DHT22;10741;52.272;9.580;2023-03-14T16:18:40;6.00;99.90
21167;DHT22;10741;52.272;9.580;2023-03-14T16:21:10;6.10;99.90
21167;DHT22;10741;52.272;9.580;2023-03-14T16:23:36;6.20;99.90
21167;DHT22;10741;52.272;9.580;2023-03-14T16:26:08;6.40;99.90
21167;DHT22;10741;52.272;9.580;2023-03-14T16:28:34;6.70;99.90
21167;DHT22;10741;52.272;9.580;2023-03-14T16:31:06;6.80;99.90
21167;DHT22;10741;52.272;9.580;2023-03-14T16:33:33;6.70;99.90
21167;DHT22;10741;52.272;9.580;2023-03-14T16:36:01;6.60;99.90
21167;DHT22;10741;52.272;9.580;2023-03-14T16:38:30;6.50;99.90
21167;DHT22;10741;52.272;9.580;2023-03-14T16:41:05;6.40;99.90
21167;DHT22;10741;52.272;9.580;2023-03-14T16:43:32;6.20;99.90
21167;DHT22;10741;52.272;9.580;2023-03-14T16:46:06;6.10;99.90
21167;DHT22;10741;52.272;9.580;2023-03-14T16:48:33;6.10;99.90
21167;DHT22;10741;52.272;9.580;2023-03-14T16:50:58;6.10;99.90
21167;DHT22;10741;52.272;9.580;2023-03-14T16:53:24;6.10;99.90
21167;DHT22;10741;52.272;9.580;2023-03-14T16:55:53;6.10;99.90
21167;DHT22;10741;52.272;9.580;2023-03-14T16:58:19;6.00;99.90
21167;DHT22;10741;52.272;9.580;2023-03-14T17:00:48;5.90;99.90
21167;DHT22;10741;52.272;9.580;2023-03-14T17:03:14;5.90;99.90
21167;DHT22;10741;52.272;9.580;2023-03-14T17:05:51;5.80;99.90
21167;DHT22;10741;52.272;9.580;2023-03-14T17:08:18;5.70;99.90
21167;DHT22;10741;52.272;9.580;2023-03-14T17:10:44;5.60;99.90
21167;DHT22;10741;52.272;9.580;2023-03-14T17:13:11;5.50;99.90